sensor_id;sensor_type;location;lat;lon;timestamp;P1;durP1;ratioP1;P2;durP2;ratioP2
16880;SDS011;8557;52.068;5.198;2022-12-10T00:01:08;55.20;;;28.60;;
16880;SDS011;8557;52.068;5.198;2022-12-10T00:03:36;51.92;;;27.60;;
16880;SDS011;8557;52.068;5.198;2022-12-10T00:06:05;49.10;;;26.55;;
16880;SDS011;8557;52.068;5.198;2022-12-10T00:08:33;49.45;;;27.63;;
16880;SDS011;8557;52.068;5.198;2022-12-10T00:11:02;51.83;;;27.63;;
16880;SDS011;8557;52.068;5.198;2022-12-10T00:13:29;51.80;;;27.00;;
16880;SDS011;8557;52.068;5.198;2022-12-10T00:15:58;55.20;;;27.52;;
16880;SDS011;8557;52.068;5.198;2022-12-10T00:18:25;60.58;;;29.52;;
16880;SDS011;8557;52.068;5.198;2022-12-10T00:20:52;50.50;;;27.13;;
16880;SDS011;8557;52.068;5.198;2022-12-10T00:23:20;53.88;;;27.80;;
16880;SDS011;8557;52.068;5.198;2022-12-10T00:25:47;53.53;;;28.42;;
16880;SDS011;8557;52.068;5.198;2022-12-10T00:28:14;49.97;;;27.42;;
16880;SDS011;8557;52.068;5.198;2022-12-10T00:30:41;54.97;;;29.40;;
16880;SDS011;8557;52.068;5.198;2022-12-10T00:33:07;56.25;;;28.92;;
16880;SDS011;8557;52.068;5.198;2022-12-10T00:35:34;55.50;;;28.95;;
16880;SDS011;8557;52.068;5.198;2022-12-10T00:38:02;51.60;;;28.17;;
16880;SDS011;8557;52.068;5.198;2022-12-10T00:40:31;55.23;;;27.23;;
16880;SDS011;8557;52.068;5.198;2022-12-10T00:42:59;55.20;;;29.00;;
16880;SDS011;8557;52.068;5.198;2022-12-10T00:45:25;54.30;;;28.52;;
16880;SDS011;8557;52.068;5.198;2022-12-10T00:47:52;50.83;;;27.47;;
16880;SDS011;8557;52.068;5.198;2022-12-10T00:50:19;59.63;;;29.90;;
16880;SDS011;8557;52.068;5.198;2022-12-10T00:52:46;55.27;;;29.73;;
16880;SDS011;8557;52.068;5.198;2022-12-10T00:55:13;53.67;;;27.80;;
16880;SDS011;8557;52.068;5.198;2022-12-10T00:57:41;60.53;;;29.47;;
16880;SDS011;8557;52.068;5.198;2022-12-10T01:00:08;57.10;;;28.47;;
16880;SDS011;8557;52.068;5.198;2022-12-10T01:02:36;51.97;;;27.50;;
16880;SDS011;8557;52.068;5.198;2022-12-10T01:05:03;62.13;;;29.55;;
16880;SDS011;8557;52.068;5.198;2022-12-10T01:07:30;60.63;;;27.65;;
16880;SDS011;8557;52.068;5.198;2022-12-10T01:09:57;60.78;;;27.83;;
16880;SDS011;8557;52.068;5.198;2022-12-10T01:12:24;61.80;;;29.35;;
16880;SDS011;8557;52.068;5.198;2022-12-10T01:14:52;60.08;;;28.30;;
16880;SDS011;8557;52.068;5.198;2022-12-10T01:17:19;63.13;;;30.27;;
16880;SDS011;8557;52.068;5.198;2022-12-10T01:19:46;61.72;;;30.10;;
16880;SDS011;8557;52.068;5.198;2022-12-10T01:22:13;60.47;;;29.65;;
16880;SDS011;8557;52.068;5.198;2022-12-10T01:24:40;66.28;;;30.40;;
16880;SDS011;8557;52.068;5.198;2022-12-10T01:27:07;67.75;;;30.02;;
16880;SDS011;8557;52.068;5.198;2022-12-10T01:29:34;65.25;;;30.58;;
16880;SDS011;8557;52.068;5.198;2022-12-10T01:32:02;72.80;;;32.07;;
16880;SDS011;8557;52.068;5.198;2022-12-10T01:34:29;70.27;;;32.70;;
16880;SDS011;8557;52.068;5.198;2022-12-10T01:36:56;72.63;;;30.75;;
16880;SDS011;8557;52.068;5.198;2022-12-10T01:39:23;69.20;;;31.87;;
16880;SDS011;8557;52.068;5.198;2022-12-10T01:41:51;74.17;;;30.17;;
16880;SDS011;8557;52.068;5.198;2022-12-10T01:47:25;63.40;;;28.53;;
16880;SDS011;8557;52.068;5.198;2022-12-10T01:49:53;68.30;;;30.33;;
16880;SDS011;8557;52.068;5.198;2022-12-10T01:52:20;70.00;;;30.43;;
16880;SDS011;8557;52.068;5.198;2022-12-10T01:54:47;85.53;;;31.83;;
16880;SDS011;8557;52.068;5.198;2022-12-10T01:57:15;70.13;;;30.33;;
16880;SDS011;8557;52.068;5.198;2022-12-10T01:59:45;65.93;;;29.90;;
16880;SDS011;8557;52.068;5.198;2022-12-10T02:02:17;66.40;;;30.63;;
16880;SDS011;8557;52.068;5.198;2022-12-10T02:04:55;86.77;;;31.83;;
16880;SDS011;8557;52.068;5.198;2022-12-10T02:07:32;82.90;;;32.27;;
16880;SDS011;8557;52.068;5.198;2022-12-10T02:10:12;74.63;;;31.87;;
16880;SDS011;8557;52.068;5.198;2022-12-10T02:12:47;75.03;;;32.73;;
16880;SDS011;8557;52.068;5.198;2022-12-10T02:15:29;72.10;;;31.50;;
16880;SDS011;8557;52.068;5.198;2022-12-10T02:18:00;75.50;;;32.10;;
16880;SDS011;8557;52.068;5.198;2022-12-10T02:20:33;74.63;;;32.43;;
16880;SDS011;8557;52.068;5.198;2022-12-10T02:23:04;69.00;;;29.67;;
16880;SDS011;8557;52.068;5.198;2022-12-10T02:25:36;68.83;;;29.73;;
16880;SDS011;8557;52.068;5.198;2022-12-10T02:28:10;75.17;;;31.07;;
16880;SDS011;8557;52.068;5.198;2022-12-10T02:30:45;72.67;;;29.60;;
16880;SDS011;8557;52.068;5.198;2022-12-10T02:33:15;81.10;;;30.20;;
16880;SDS011;8557;52.068;5.198;2022-12-10T02:35:44;74.57;;;32.27;;
16880;SDS011;8557;52.068;5.198;2022-12-10T02:38:12;76.00;;;31.43;;
16880;SDS011;8557;52.068;5.198;2022-12-10T02:40:44;115.77;;;32.63;;
16880;SDS011;8557;52.068;5.198;2022-12-10T02:43:13;87.00;;;30.70;;
16880;SDS011;8557;52.068;5.198;2022-12-10T02:45:41;71.47;;;28.70;;
16880;SDS011;8557;52.068;5.198;2022-12-10T02:48:10;74.67;;;29.37;;
16880;SDS011;8557;52.068;5.198;2022-12-10T02:50:39;76.73;;;30.33;;
16880;SDS011;8557;52.068;5.198;2022-12-10T02:53:06;71.32;;;29.40;;
16880;SDS011;8557;52.068;5.198;2022-12-10T02:55:37;67.75;;;29.20;;
16880;SDS011;8557;52.068;5.198;2022-12-10T02:58:15;76.83;;;29.87;;
16880;SDS011;8557;52.068;5.198;2022-12-10T03:00:50;73.13;;;30.63;;
16880;SDS011;8557;52.068;5.198;2022-12-10T03:03:31;81.03;;;29.43;;
16880;SDS011;8557;52.068;5.198;2022-12-10T03:06:05;86.57;;;29.57;;
16880;SDS011;8557;52.068;5.198;2022-12-10T03:08:39;73.30;;;30.10;;
16880;SDS011;8557;52.068;5.198;2022-12-10T03:11:12;73.30;;;29.67;;
16880;SDS011;8557;52.068;5.198;2022-12-10T03:13:43;76.63;;;30.23;;
16880;SDS011;8557;52.068;5.198;2022-12-10T03:16:15;75.45;;;28.88;;
16880;SDS011;8557;52.068;5.198;2022-12-10T03:18:45;81.85;;;30.05;;
16880;SDS011;8557;52.068;5.198;2022-12-10T03:21:15;73.57;;;29.03;;
16880;SDS011;8557;52.068;5.198;2022-12-10T03:23:45;74.50;;;30.30;;
16880;SDS011;8557;52.068;5.198;2022-12-10T03:26:13;86.63;;;30.10;;
16880;SDS011;8557;52.068;5.198;2022-12-10T03:28:43;82.60;;;29.83;;
16880;SDS011;8557;52.068;5.198;2022-12-10T03:31:14;77.15;;;29.80;;
16880;SDS011;8557;52.068;5.198;2022-12-10T03:33:42;93.07;;;30.33;;
16880;SDS011;8557;52.068;5.198;2022-12-10T03:36:12;71.20;;;30.47;;
16880;SDS011;8557;52.068;5.198;2022-12-10T03:38:40;95.07;;;30.70;;
16880;SDS011;8557;52.068;5.198;2022-12-10T03:41:09;82.37;;;33.00;;
16880;SDS011;8557;52.068;5.198;2022-12-10T03:43:36;78.37;;;31.87;;
16880;SDS011;8557;52.068;5.198;2022-12-10T03:46:16;76.75;;;30.15;;
16880;SDS011;8557;52.068;5.198;2022-12-10T03:48:43;89.03;;;32.40;;
16880;SDS011;8557;52.068;5.198;2022-12-10T03:51:10;89.93;;;32.07;;
16880;SDS011;8557;52.068;5.198;2022-12-10T03:53:38;114.47;;;35.42;;
16880;SDS011;8557;52.068;5.198;2022-12-10T03:56:05;99.53;;;35.42;;
16880;SDS011;8557;52.068;5.198;2022-12-10T03:58:32;97.40;;;33.10;;
16880;SDS011;8557;52.068;5.198;2022-12-10T04:00:59;90.33;;;32.07;;
16880;SDS011;8557;52.068;5.198;2022-12-10T04:03:26;101.35;;;33.08;;
16880;SDS011;8557;52.068;5.198;2022-12-10T04:05:53;110.63;;;34.67;;
16880;SDS011;8557;52.068;5.198;2022-12-10T04:08:20;97.22;;;36.78;;
16880;SDS011;8557;52.068;5.198;2022-12-10T04:10:48;108.17;;;34.07;;
16880;SDS011;8557;52.068;5.198;2022-12-10T04:13:15;81.25;;;32.35;;
16880;SDS011;8557;52.068;5.198;2022-12-10T04:15:59;93.40;;;34.30;;
16880;SDS011;8557;52.068;5.198;2022-12-10T04:18:43;96.67;;;34.90;;
16880;SDS011;8557;52.068;5.198;2022-12-10T04:21:10;86.90;;;34.77;;
16880;SDS011;8557;52.068;5.198;2022-12-10T04:23:55;92.55;;;34.50;;
16880;SDS011;8557;52.068;5.198;2022-12-10T04:26:40;85.70;;;33.77;;
16880;SDS011;8557;52.068;5.198;2022-12-10T04:29:20;109.43;;;33.72;;
16880;SDS011;8557;52.068;5.198;2022-12-10T04:31:47;95.68;;;34.20;;
16880;SDS011;8557;52.068;5.198;2022-12-10T04:34:14;134.60;;;34.63;;
16880;SDS011;8557;52.068;5.198;2022-12-10T04:36:41;172.13;;;36.63;;
16880;SDS011;8557;52.068;5.198;2022-12-10T04:39:08;85.80;;;34.45;;
16880;SDS011;8557;52.068;5.198;2022-12-10T04:41:36;100.50;;;32.42;;
16880;SDS011;8557;52.068;5.198;2022-12-10T04:44:05;88.38;;;32.28;;
16880;SDS011;8557;52.068;5.198;2022-12-10T04:46:32;88.77;;;31.50;;
16880;SDS011;8557;52.068;5.198;2022-12-10T04:48:59;83.73;;;30.77;;
16880;SDS011;8557;52.068;5.198;2022-12-10T04:51:25;84.27;;;29.57;;
16880;SDS011;8557;52.068;5.198;2022-12-10T04:53:52;64.77;;;29.23;;
16880;SDS011;8557;52.068;5.198;2022-12-10T04:56:19;70.47;;;28.63;;
16880;SDS011;8557;52.068;5.198;2022-12-10T04:58:46;90.87;;;29.30;;
16880;SDS011;8557;52.068;5.198;2022-12-10T05:01:14;126.37;;;31.53;;
16880;SDS011;8557;52.068;5.198;2022-12-10T05:03:43;121.57;;;30.83;;
16880;SDS011;8557;52.068;5.198;2022-12-10T05:06:10;75.57;;;29.00;;
16880;SDS011;8557;52.068;5.198;2022-12-10T05:08:38;90.93;;;30.90;;
16880;SDS011;8557;52.068;5.198;2022-12-10T05:11:06;170.37;;;32.53;;
16880;SDS011;8557;52.068;5.198;2022-12-10T05:13:35;72.47;;;31.07;;
16880;SDS011;8557;52.068;5.198;2022-12-10T05:16:03;71.77;;;29.47;;
16880;SDS011;8557;52.068;5.198;2022-12-10T05:18:32;77.17;;;28.90;;
16880;SDS011;8557;52.068;5.198;2022-12-10T05:20:59;78.27;;;29.43;;
16880;SDS011;8557;52.068;5.198;2022-12-10T05:23:26;72.03;;;28.47;;
16880;SDS011;8557;52.068;5.198;2022-12-10T05:25:57;70.73;;;28.77;;
16880;SDS011;8557;52.068;5.198;2022-12-10T05:28:24;79.50;;;29.10;;
16880;SDS011;8557;52.068;5.198;2022-12-10T05:30:51;81.38;;;28.65;;
16880;SDS011;8557;52.068;5.198;2022-12-10T05:33:18;67.30;;;29.43;;
16880;SDS011;8557;52.068;5.198;2022-12-10T05:35:52;73.83;;;28.13;;
16880;SDS011;8557;52.068;5.198;2022-12-10T05:38:19;69.47;;;28.40;;
16880;SDS011;8557;52.068;5.198;2022-12-10T05:40:46;63.73;;;26.63;;
16880;SDS011;8557;52.068;5.198;2022-12-10T05:43:13;70.83;;;29.20;;
16880;SDS011;8557;52.068;5.198;2022-12-10T05:45:40;73.60;;;28.30;;
16880;SDS011;8557;52.068;5.198;2022-12-10T05:48:08;64.77;;;27.57;;
16880;SDS011;8557;52.068;5.198;2022-12-10T05:50:35;79.23;;;26.53;;
16880;SDS011;8557;52.068;5.198;2022-12-10T05:53:04;68.40;;;27.00;;
16880;SDS011;8557;52.068;5.198;2022-12-10T05:55:31;77.63;;;28.47;;
16880;SDS011;8557;52.068;5.198;2022-12-10T05:57:58;69.70;;;28.30;;
16880;SDS011;8557;52.068;5.198;2022-12-10T06:00:25;64.43;;;28.90;;
16880;SDS011;8557;52.068;5.198;2022-12-10T06:02:52;62.17;;;27.20;;
16880;SDS011;8557;52.068;5.198;2022-12-10T06:05:19;68.73;;;28.87;;
16880;SDS011;8557;52.068;5.198;2022-12-10T06:07:46;73.50;;;28.97;;
16880;SDS011;8557;52.068;5.198;2022-12-10T06:10:15;63.53;;;28.02;;
16880;SDS011;8557;52.068;5.198;2022-12-10T06:12:41;70.63;;;27.20;;
16880;SDS011;8557;52.068;5.198;2022-12-10T06:15:09;74.72;;;30.10;;
16880;SDS011;8557;52.068;5.198;2022-12-10T06:17:36;77.17;;;29.97;;
16880;SDS011;8557;52.068;5.198;2022-12-10T06:20:03;77.03;;;30.50;;
16880;SDS011;8557;52.068;5.198;2022-12-10T06:22:30;102.10;;;30.10;;
16880;SDS011;8557;52.068;5.198;2022-12-10T06:24:57;65.97;;;29.13;;
16880;SDS011;8557;52.068;5.198;2022-12-10T06:27:25;70.83;;;29.37;;
16880;SDS011;8557;52.068;5.198;2022-12-10T06:29:52;77.53;;;30.17;;
16880;SDS011;8557;52.068;5.198;2022-12-10T06:32:19;76.57;;;31.23;;
16880;SDS011;8557;52.068;5.198;2022-12-10T06:34:45;85.83;;;31.60;;
16880;SDS011;8557;52.068;5.198;2022-12-10T06:37:12;76.90;;;29.53;;
16880;SDS011;8557;52.068;5.198;2022-12-10T06:39:39;67.77;;;29.77;;
16880;SDS011;8557;52.068;5.198;2022-12-10T06:42:06;71.15;;;28.20;;
16880;SDS011;8557;52.068;5.198;2022-12-10T06:44:34;80.37;;;29.73;;
16880;SDS011;8557;52.068;5.198;2022-12-10T06:47:01;73.03;;;30.00;;
16880;SDS011;8557;52.068;5.198;2022-12-10T06:49:28;61.08;;;27.30;;
16880;SDS011;8557;52.068;5.198;2022-12-10T06:51:55;63.50;;;28.75;;
16880;SDS011;8557;52.068;5.198;2022-12-10T06:54:22;73.53;;;29.90;;
16880;SDS011;8557;52.068;5.198;2022-12-10T06:56:48;70.43;;;27.17;;
16880;SDS011;8557;52.068;5.198;2022-12-10T06:59:15;134.07;;;30.05;;
16880;SDS011;8557;52.068;5.198;2022-12-10T07:01:43;69.87;;;28.13;;
16880;SDS011;8557;52.068;5.198;2022-12-10T07:04:10;66.90;;;26.40;;
16880;SDS011;8557;52.068;5.198;2022-12-10T07:06:37;57.47;;;26.40;;
16880;SDS011;8557;52.068;5.198;2022-12-10T07:09:04;65.67;;;27.37;;
16880;SDS011;8557;52.068;5.198;2022-12-10T07:11:31;55.73;;;26.47;;
16880;SDS011;8557;52.068;5.198;2022-12-10T07:13:58;56.93;;;26.73;;
16880;SDS011;8557;52.068;5.198;2022-12-10T07:16:26;56.53;;;27.53;;
16880;SDS011;8557;52.068;5.198;2022-12-10T07:18:57;55.10;;;26.67;;
16880;SDS011;8557;52.068;5.198;2022-12-10T07:21:26;61.90;;;27.03;;
16880;SDS011;8557;52.068;5.198;2022-12-10T07:23:55;61.00;;;25.57;;
16880;SDS011;8557;52.068;5.198;2022-12-10T07:26:23;60.83;;;26.13;;
16880;SDS011;8557;52.068;5.198;2022-12-10T07:28:50;54.93;;;26.17;;
16880;SDS011;8557;52.068;5.198;2022-12-10T07:31:17;58.77;;;26.60;;
16880;SDS011;8557;52.068;5.198;2022-12-10T07:33:44;62.67;;;26.57;;
16880;SDS011;8557;52.068;5.198;2022-12-10T07:36:13;77.30;;;28.63;;
16880;SDS011;8557;52.068;5.198;2022-12-10T07:38:40;60.77;;;26.53;;
16880;SDS011;8557;52.068;5.198;2022-12-10T07:41:07;59.23;;;26.40;;
16880;SDS011;8557;52.068;5.198;2022-12-10T07:43:35;64.53;;;28.07;;
16880;SDS011;8557;52.068;5.198;2022-12-10T07:46:04;62.10;;;28.10;;
16880;SDS011;8557;52.068;5.198;2022-12-10T07:48:33;72.60;;;27.83;;
16880;SDS011;8557;52.068;5.198;2022-12-10T07:51:01;72.23;;;29.43;;
16880;SDS011;8557;52.068;5.198;2022-12-10T07:53:30;59.27;;;27.83;;
16880;SDS011;8557;52.068;5.198;2022-12-10T07:55:57;66.35;;;29.23;;
16880;SDS011;8557;52.068;5.198;2022-12-10T07:58:24;70.30;;;27.67;;
16880;SDS011;8557;52.068;5.198;2022-12-10T08:00:50;60.13;;;26.08;;
16880;SDS011;8557;52.068;5.198;2022-12-10T08:03:17;68.63;;;28.80;;
16880;SDS011;8557;52.068;5.198;2022-12-10T08:05:44;60.93;;;27.20;;
16880;SDS011;8557;52.068;5.198;2022-12-10T08:08:11;57.23;;;25.63;;
16880;SDS011;8557;52.068;5.198;2022-12-10T08:10:39;52.80;;;24.90;;
16880;SDS011;8557;52.068;5.198;2022-12-10T08:13:06;62.77;;;25.50;;
16880;SDS011;8557;52.068;5.198;2022-12-10T08:15:33;61.80;;;27.30;;
16880;SDS011;8557;52.068;5.198;2022-12-10T08:18:00;50.20;;;23.83;;
16880;SDS011;8557;52.068;5.198;2022-12-10T08:20:27;57.63;;;25.87;;
16880;SDS011;8557;52.068;5.198;2022-12-10T08:22:53;65.77;;;25.33;;
16880;SDS011;8557;52.068;5.198;2022-12-10T08:25:20;57.67;;;27.17;;
16880;SDS011;8557;52.068;5.198;2022-12-10T08:27:48;63.17;;;26.60;;
16880;SDS011;8557;52.068;5.198;2022-12-10T08:30:15;64.50;;;26.20;;
16880;SDS011;8557;52.068;5.198;2022-12-10T08:32:42;61.13;;;25.77;;
16880;SDS011;8557;52.068;5.198;2022-12-10T08:35:09;63.73;;;25.60;;
16880;SDS011;8557;52.068;5.198;2022-12-10T08:37:36;64.20;;;24.83;;
16880;SDS011;8557;52.068;5.198;2022-12-10T08:40:07;59.37;;;24.70;;
16880;SDS011;8557;52.068;5.198;2022-12-10T08:42:35;55.93;;;25.43;;
16880;SDS011;8557;52.068;5.198;2022-12-10T08:45:03;51.00;;;24.50;;
16880;SDS011;8557;52.068;5.198;2022-12-10T08:47:31;62.90;;;24.57;;
16880;SDS011;8557;52.068;5.198;2022-12-10T08:49:58;57.73;;;24.43;;
16880;SDS011;8557;52.068;5.198;2022-12-10T08:52:25;56.67;;;24.13;;
16880;SDS011;8557;52.068;5.198;2022-12-10T08:54:54;56.37;;;23.83;;
16880;SDS011;8557;52.068;5.198;2022-12-10T08:57:21;58.67;;;24.70;;
16880;SDS011;8557;52.068;5.198;2022-12-10T08:59:47;62.30;;;25.20;;
16880;SDS011;8557;52.068;5.198;2022-12-10T09:02:15;62.37;;;25.80;;
16880;SDS011;8557;52.068;5.198;2022-12-10T09:04:42;59.57;;;25.20;;
16880;SDS011;8557;52.068;5.198;2022-12-10T09:07:11;64.50;;;26.02;;
16880;SDS011;8557;52.068;5.198;2022-12-10T09:09:38;59.97;;;24.80;;
16880;SDS011;8557;52.068;5.198;2022-12-10T09:12:05;56.73;;;25.03;;
16880;SDS011;8557;52.068;5.198;2022-12-10T09:14:32;57.93;;;23.63;;
16880;SDS011;8557;52.068;5.198;2022-12-10T09:16:58;55.90;;;24.47;;
16880;SDS011;8557;52.068;5.198;2022-12-10T09:19:30;63.97;;;25.13;;
16880;SDS011;8557;52.068;5.198;2022-12-10T09:21:56;60.27;;;24.60;;
16880;SDS011;8557;52.068;5.198;2022-12-10T09:24:23;63.70;;;24.87;;
16880;SDS011;8557;52.068;5.198;2022-12-10T09:26:50;62.50;;;25.17;;
16880;SDS011;8557;52.068;5.198;2022-12-10T09:29:17;60.80;;;25.07;;
16880;SDS011;8557;52.068;5.198;2022-12-10T09:31:44;61.23;;;25.70;;
16880;SDS011;8557;52.068;5.198;2022-12-10T09:34:11;58.83;;;25.67;;
16880;SDS011;8557;52.068;5.198;2022-12-10T09:36:39;68.17;;;26.33;;
16880;SDS011;8557;52.068;5.198;2022-12-10T09:39:06;55.20;;;25.48;;
16880;SDS011;8557;52.068;5.198;2022-12-10T09:41:36;67.40;;;26.27;;
16880;SDS011;8557;52.068;5.198;2022-12-10T09:44:26;74.13;;;26.23;;
16880;SDS011;8557;52.068;5.198;2022-12-10T09:47:05;61.73;;;23.57;;
16880;SDS011;8557;52.068;5.198;2022-12-10T09:49:38;59.03;;;24.60;;
16880;SDS011;8557;52.068;5.198;2022-12-10T09:52:17;56.77;;;24.37;;
16880;SDS011;8557;52.068;5.198;2022-12-10T09:54:48;61.40;;;24.70;;
16880;SDS011;8557;52.068;5.198;2022-12-10T09:57:21;62.93;;;25.17;;
16880;SDS011;8557;52.068;5.198;2022-12-10T09:59:52;57.87;;;24.57;;
16880;SDS011;8557;52.068;5.198;2022-12-10T10:02:21;59.63;;;24.63;;
16880;SDS011;8557;52.068;5.198;2022-12-10T10:04:51;62.43;;;23.87;;
16880;SDS011;8557;52.068;5.198;2022-12-10T10:07:22;58.60;;;26.00;;
16880;SDS011;8557;52.068;5.198;2022-12-10T10:09:51;60.35;;;25.67;;
16880;SDS011;8557;52.068;5.198;2022-12-10T10:12:22;53.88;;;23.48;;
16880;SDS011;8557;52.068;5.198;2022-12-10T10:14:49;62.30;;;24.23;;
16880;SDS011;8557;52.068;5.198;2022-12-10T10:17:16;61.23;;;25.10;;
16880;SDS011;8557;52.068;5.198;2022-12-10T10:19:46;66.83;;;25.63;;
16880;SDS011;8557;52.068;5.198;2022-12-10T10:22:14;65.63;;;25.87;;
16880;SDS011;8557;52.068;5.198;2022-12-10T10:24:43;59.67;;;25.73;;
16880;SDS011;8557;52.068;5.198;2022-12-10T10:27:12;60.85;;;26.13;;
16880;SDS011;8557;52.068;5.198;2022-12-10T10:29:40;57.27;;;25.07;;
16880;SDS011;8557;52.068;5.198;2022-12-10T10:32:13;54.13;;;24.57;;
16880;SDS011;8557;52.068;5.198;2022-12-10T10:34:43;55.37;;;24.00;;
16880;SDS011;8557;52.068;5.198;2022-12-10T10:37:14;54.13;;;24.08;;
16880;SDS011;8557;52.068;5.198;2022-12-10T10:39:53;59.40;;;24.03;;
16880;SDS011;8557;52.068;5.198;2022-12-10T10:42:26;56.47;;;23.00;;
16880;SDS011;8557;52.068;5.198;2022-12-10T10:45:02;60.90;;;23.67;;
16880;SDS011;8557;52.068;5.198;2022-12-10T10:47:31;58.90;;;24.57;;
16880;SDS011;8557;52.068;5.198;2022-12-10T10:49:59;58.87;;;24.67;;
16880;SDS011;8557;52.068;5.198;2022-12-10T10:52:27;59.03;;;23.37;;
16880;SDS011;8557;52.068;5.198;2022-12-10T10:54:57;57.83;;;23.37;;
16880;SDS011;8557;52.068;5.198;2022-12-10T10:57:25;59.73;;;24.40;;
16880;SDS011;8557;52.068;5.198;2022-12-10T10:59:56;52.43;;;22.87;;
16880;SDS011;8557;52.068;5.198;2022-12-10T11:02:29;54.53;;;23.77;;
16880;SDS011;8557;52.068;5.198;2022-12-10T11:05:03;54.53;;;22.27;;
16880;SDS011;8557;52.068;5.198;2022-12-10T11:07:33;58.27;;;23.77;;
16880;SDS011;8557;52.068;5.198;2022-12-10T11:10:03;60.77;;;25.37;;
16880;SDS011;8557;52.068;5.198;2022-12-10T11:12:42;56.27;;;23.67;;
16880;SDS011;8557;52.068;5.198;2022-12-10T11:17:58;60.03;;;23.00;;
16880;SDS011;8557;52.068;5.198;2022-12-10T11:20:26;54.53;;;22.23;;
16880;SDS011;8557;52.068;5.198;2022-12-10T11:22:56;55.73;;;22.60;;
16880;SDS011;8557;52.068;5.198;2022-12-10T11:25:29;53.80;;;22.03;;
16880;SDS011;8557;52.068;5.198;2022-12-10T11:28:06;58.97;;;22.77;;
16880;SDS011;8557;52.068;5.198;2022-12-10T11:30:47;58.70;;;23.37;;
16880;SDS011;8557;52.068;5.198;2022-12-10T11:33:23;70.07;;;25.60;;
16880;SDS011;8557;52.068;5.198;2022-12-10T11:35:59;58.37;;;23.70;;
16880;SDS011;8557;52.068;5.198;2022-12-10T11:38:35;51.60;;;20.83;;
16880;SDS011;8557;52.068;5.198;2022-12-10T11:41:13;48.00;;;18.60;;
16880;SDS011;8557;52.068;5.198;2022-12-10T11:44:00;51.20;;;20.90;;
16880;SDS011;8557;52.068;5.198;2022-12-10T11:49:42;50.40;;;21.53;;
16880;SDS011;8557;52.068;5.198;2022-12-10T11:52:32;54.50;;;22.13;;
16880;SDS011;8557;52.068;5.198;2022-12-10T11:55:15;56.77;;;22.63;;
16880;SDS011;8557;52.068;5.198;2022-12-10T11:57:54;60.50;;;23.30;;
16880;SDS011;8557;52.068;5.198;2022-12-10T12:00:36;60.57;;;24.07;;
16880;SDS011;8557;52.068;5.198;2022-12-10T12:03:10;63.63;;;24.10;;
16880;SDS011;8557;52.068;5.198;2022-12-10T12:05:55;53.77;;;21.77;;
16880;SDS011;8557;52.068;5.198;2022-12-10T12:08:32;52.00;;;22.20;;
16880;SDS011;8557;52.068;5.198;2022-12-10T12:11:10;51.00;;;22.43;;
16880;SDS011;8557;52.068;5.198;2022-12-10T12:13:48;51.43;;;22.67;;
16880;SDS011;8557;52.068;5.198;2022-12-10T12:16:23;52.70;;;23.47;;
16880;SDS011;8557;52.068;5.198;2022-12-10T12:18:54;51.40;;;21.77;;
16880;SDS011;8557;52.068;5.198;2022-12-10T12:21:25;58.08;;;22.85;;
16880;SDS011;8557;52.068;5.198;2022-12-10T12:23:52;56.30;;;24.25;;
16880;SDS011;8557;52.068;5.198;2022-12-10T12:26:23;56.83;;;24.02;;
16880;SDS011;8557;52.068;5.198;2022-12-10T12:28:59;59.47;;;24.25;;
16880;SDS011;8557;52.068;5.198;2022-12-10T12:31:35;58.40;;;23.42;;
16880;SDS011;8557;52.068;5.198;2022-12-10T12:34:06;67.65;;;25.83;;
16880;SDS011;8557;52.068;5.198;2022-12-10T12:36:41;62.07;;;25.43;;
16880;SDS011;8557;52.068;5.198;2022-12-10T12:39:11;62.25;;;24.40;;
16880;SDS011;8557;52.068;5.198;2022-12-10T12:41:48;59.22;;;23.83;;
16880;SDS011;8557;52.068;5.198;2022-12-10T12:44:24;60.78;;;23.85;;
16880;SDS011;8557;52.068;5.198;2022-12-10T12:46:55;57.95;;;24.50;;
16880;SDS011;8557;52.068;5.198;2022-12-10T12:49:26;48.85;;;23.10;;
16880;SDS011;8557;52.068;5.198;2022-12-10T12:51:57;54.07;;;23.03;;
16880;SDS011;8557;52.068;5.198;2022-12-10T12:54:28;53.37;;;23.47;;
16880;SDS011;8557;52.068;5.198;2022-12-10T12:56:59;57.92;;;24.50;;
16880;SDS011;8557;52.068;5.198;2022-12-10T12:59:36;58.80;;;24.60;;
16880;SDS011;8557;52.068;5.198;2022-12-10T13:02:17;60.88;;;23.50;;
16880;SDS011;8557;52.068;5.198;2022-12-10T13:04:52;53.70;;;23.20;;
16880;SDS011;8557;52.068;5.198;2022-12-10T13:07:29;58.92;;;24.70;;
16880;SDS011;8557;52.068;5.198;2022-12-10T13:10:10;56.17;;;23.17;;
16880;SDS011;8557;52.068;5.198;2022-12-10T13:12:51;57.22;;;22.95;;
16880;SDS011;8557;52.068;5.198;2022-12-10T13:15:51;51.33;;;22.88;;
16880;SDS011;8557;52.068;5.198;2022-12-10T13:18:20;48.13;;;19.73;;
16880;SDS011;8557;52.068;5.198;2022-12-10T13:21:25;51.42;;;22.20;;
16880;SDS011;8557;52.068;5.198;2022-12-10T13:24:05;54.42;;;21.85;;
16880;SDS011;8557;52.068;5.198;2022-12-10T13:26:58;52.43;;;22.67;;
16880;SDS011;8557;52.068;5.198;2022-12-10T13:29:29;53.42;;;22.40;;
16880;SDS011;8557;52.068;5.198;2022-12-10T13:32:15;52.08;;;21.25;;
16880;SDS011;8557;52.068;5.198;2022-12-10T13:34:43;58.15;;;23.42;;
16880;SDS011;8557;52.068;5.198;2022-12-10T13:37:18;44.28;;;19.88;;
16880;SDS011;8557;52.068;5.198;2022-12-10T13:40:00;50.73;;;20.30;;
16880;SDS011;8557;52.068;5.198;2022-12-10T13:42:38;49.60;;;20.88;;
16880;SDS011;8557;52.068;5.198;2022-12-10T13:45:27;48.38;;;21.02;;
16880;SDS011;8557;52.068;5.198;2022-12-10T13:50:54;55.07;;;21.90;;
16880;SDS011;8557;52.068;5.198;2022-12-10T13:53:30;50.27;;;21.93;;
16880;SDS011;8557;52.068;5.198;2022-12-10T13:56:07;53.17;;;21.83;;
16880;SDS011;8557;52.068;5.198;2022-12-10T13:58:45;58.50;;;22.77;;
16880;SDS011;8557;52.068;5.198;2022-12-10T14:01:23;55.30;;;22.93;;
16880;SDS011;8557;52.068;5.198;2022-12-10T14:06:53;61.00;;;24.97;;
16880;SDS011;8557;52.068;5.198;2022-12-10T14:09:21;60.87;;;23.50;;
16880;SDS011;8557;52.068;5.198;2022-12-10T14:11:53;57.43;;;23.07;;
16880;SDS011;8557;52.068;5.198;2022-12-10T14:14:23;58.30;;;21.87;;
16880;SDS011;8557;52.068;5.198;2022-12-10T14:16:55;53.93;;;22.83;;
16880;SDS011;8557;52.068;5.198;2022-12-10T14:19:27;54.40;;;21.67;;
16880;SDS011;8557;52.068;5.198;2022-12-10T14:21:55;76.27;;;26.97;;
16880;SDS011;8557;52.068;5.198;2022-12-10T14:24:27;62.65;;;25.52;;
16880;SDS011;8557;52.068;5.198;2022-12-10T14:26:59;64.30;;;24.58;;
16880;SDS011;8557;52.068;5.198;2022-12-10T14:29:29;48.53;;;20.73;;
16880;SDS011;8557;52.068;5.198;2022-12-10T14:31:56;55.25;;;22.95;;
16880;SDS011;8557;52.068;5.198;2022-12-10T14:34:24;60.35;;;20.55;;
16880;SDS011;8557;52.068;5.198;2022-12-10T14:36:54;56.70;;;22.07;;
16880;SDS011;8557;52.068;5.198;2022-12-10T14:39:24;55.05;;;22.08;;
16880;SDS011;8557;52.068;5.198;2022-12-10T14:41:55;65.70;;;22.45;;
16880;SDS011;8557;52.068;5.198;2022-12-10T14:44:23;54.88;;;23.10;;
16880;SDS011;8557;52.068;5.198;2022-12-10T14:46:51;59.63;;;23.70;;
16880;SDS011;8557;52.068;5.198;2022-12-10T14:49:30;61.00;;;23.48;;
16880;SDS011;8557;52.068;5.198;2022-12-10T14:51:57;60.58;;;22.88;;
16880;SDS011;8557;52.068;5.198;2022-12-10T14:54:27;65.28;;;22.90;;
16880;SDS011;8557;52.068;5.198;2022-12-10T14:56:56;69.18;;;23.38;;
16880;SDS011;8557;52.068;5.198;2022-12-10T14:59:27;72.18;;;23.50;;
16880;SDS011;8557;52.068;5.198;2022-12-10T15:01:59;69.65;;;24.48;;
16880;SDS011;8557;52.068;5.198;2022-12-10T15:04:39;69.78;;;25.70;;
16880;SDS011;8557;52.068;5.198;2022-12-10T15:07:10;58.40;;;22.63;;